Arklow Mill — EIJD9 — position and weather

sailwx.info

Track history (hours):
 
Tides and Currents Weather Stations Pressure Air Temp Water Temp Dewpoint Dewpoint Depression Visibility Wind Speed Wind Dir Waves Ship Positions

Arklow Mill

Last reported at 2016-May-24 11:33 UTC. Time now 2016-May-24 11:49 UTC.
Position N 51°17' E 004°21'.

Length 137 m; draft 8.4 m.

Type: Ship. MMSI: 250002022.

Date/timePositionNaut miles runAvg speedWind from/ knotsBaromVisibWave heightAir tempDewpointWater temp
2016-May-24 11:33N 51°17' E 004°21'0 0.0
2016-May-24 10:33N 51°17' E 004°21'0 0.0
2016-May-24 09:33N 51°17' E 004°21'0 0.0
2016-May-24 08:33N 51°17' E 004°21'0 0.0
2016-May-24 07:33N 51°17' E 004°21'0 0.0
2016-May-24 06:33N 51°17' E 004°21'0 0.0
2016-May-24 05:33N 51°17' E 004°21'0 0.0
2016-May-24 04:33N 51°17' E 004°21'0 0.0
2016-May-24 03:33N 51°17' E 004°21'0 0.0
2016-May-24 02:33N 51°17' E 004°21'0 0.0
2016-May-24 01:33N 51°17' E 004°21'0 0.0
2016-May-24 00:33N 51°17' E 004°21'0 0.0
2016-May-23 23:33N 51°17' E 004°21'0 0.0
2016-May-23 22:33N 51°17' E 004°21'0 0.0
2016-May-23 21:33N 51°17' E 004°21'0 0.0
2016-May-23 20:30N 51°17' E 004°21'0 0.0
2016-May-23 19:33N 51°17' E 004°21'0 0.0
2016-May-23 18:33N 51°17' E 004°21'0 0.0
2016-May-23 17:33N 51°17' E 004°21'0 0.0
2016-May-23 16:33N 51°17' E 004°21'0 0.0
2016-May-23 15:33N 51°17' E 004°21'0 0.0
2016-May-23 14:33N 51°17' E 004°21'0 0.0
2016-May-23 13:33N 51°17' E 004°21'0 0.0
2016-May-23 12:33N 51°17' E 004°21'0 0.0
2016-May-22 19:33N 51°17' E 004°21'4 4.1
2016-May-22 18:34N 51°21' E 004°17'0 0.0
2016-May-22 17:34N 51°21' E 004°17'4 4.4
2016-May-22 16:34N 51°24' E 004°12'8 8.3
2016-May-22 15:34N 51°26' E 003°59'1010.2
2016-May-22 14:33N 51°22' E 003°45'1211.7
2016-May-22 13:33N 51°25' E 003°26'1414.0
2016-May-22 12:33N 51°25' E 003°04'1313.4
2016-May-22 11:33N 51°21' E 002°43'1312.4
2016-May-22 10:32N 51°20' E 002°23'1211.8
2016-May-22 09:33N 51°14' E 002°07'1110.6
2016-May-22 08:33N 51°08' E 001°52'12 9.7
2016-May-22 07:20N 51°00' E 001°39'7510.9
2016-May-22 00:27N 50°04' E 000°21'1112.4
2016-May-21 23:33N 49°54' E 000°12'1313.2
2016-May-21 22:34N 49°43' E 000°02'1313.5
2016-May-21 21:33N 49°30' W 000°05'1110.7
2016-May-21 20:33N 49°26' E 000°10'10 9.9
2016-May-21 19:33N 49°27' E 000°25'8 7.4
2016-May-21 18:32N 49°26' E 000°36'8 7.6
2016-May-21 17:29N 49°31' E 000°46'8 7.4
2016-May-21 16:28N 49°24' E 000°52'3 0.1
2016-May-20 09:33N 49°27' E 000°49'6 6.0
2016-May-20 08:33N 49°28' E 000°40'8 7.8
2016-May-20 07:34N 49°29' E 000°28'1312.6
2016-May-20 06:34N 49°26' E 000°09'1110.3
2016-May-20 05:31N 49°29' W 000°07'0 0.0
2016-May-20 04:31N 49°29' W 000°07'0 0.1
2016-May-20 03:31N 49°29' W 000°07'0 0.0
2016-May-20 02:28N 49°29' W 000°07'0 0.0
2016-May-20 01:31N 49°29' W 000°07'0 0.0
2016-May-20 00:31N 49°29' W 000°07'0 0.0
2016-May-19 23:31N 49°29' W 000°07'0 0.0
2016-May-19 22:31N 49°29' W 000°07'0 0.0
2016-May-19 21:31N 49°29' W 000°07'0 0.0
2016-May-19 20:31N 49°29' W 000°07'0 0.0
2016-May-19 19:31N 49°29' W 000°07'0 0.0
2016-May-19 18:31N 49°29' W 000°07'0 0.0
2016-May-19 17:31N 49°29' W 000°07'0 0.0
2016-May-19 16:31N 49°29' W 000°07'0 0.1
2016-May-19 15:31N 49°29' W 000°07'0 0.0
2016-May-19 14:31N 49°29' W 000°07'0 0.0
2016-May-19 13:31N 49°29' W 000°07'0 0.0
2016-May-19 12:31N 49°29' W 000°07'0 0.1
2016-May-19 11:31N 49°29' W 000°07'0 0.0
2016-May-19 10:31N 49°29' W 000°07'0 0.0
2016-May-19 09:31N 49°29' W 000°07'0 0.0
2016-May-19 08:31N 49°29' W 000°07'0 0.0
2016-May-19 07:31N 49°29' W 000°07'0 0.0
2016-May-19 06:31N 49°29' W 000°07'0 0.0
2016-May-19 05:31N 49°29' W 000°07'0 0.0
2016-May-19 04:31N 49°29' W 000°07'0 0.0
2016-May-19 03:31N 49°29' W 000°07'0 0.0
2016-May-19 02:31N 49°29' W 000°07'0 0.0
2016-May-19 01:31N 49°29' W 000°07'0 0.0
2016-May-19 00:31N 49°29' W 000°07'0 0.0
2016-May-18 23:31N 49°29' W 000°07'0 0.0
2016-May-18 22:28N 49°29' W 000°07'0 0.0
2016-May-18 21:31N 49°29' W 000°07'0 0.0
2016-May-18 20:31N 49°29' W 000°07'0 0.0
2016-May-18 19:31N 49°29' W 000°07'0 0.0
2016-May-18 18:31N 49°29' W 000°07'0 0.0
2016-May-18 17:31N 49°29' W 000°07'0 0.0
2016-May-18 16:31N 49°29' W 000°07'0 0.0
2016-May-18 15:31N 49°29' W 000°07'0 0.0
2016-May-18 14:31N 49°29' W 000°07'0 0.0
2016-May-18 13:31N 49°29' W 000°07'0 0.1
2016-May-18 12:31N 49°29' W 000°07'0 0.1
2016-May-18 11:31N 49°29' W 000°07'0 0.1
2016-May-18 10:31N 49°29' W 000°07'0 0.0
2016-May-18 09:31N 49°29' W 000°07'0 0.0
2016-May-18 08:31N 49°29' W 000°07'0 0.0
2016-May-18 07:31N 49°29' W 000°07'0 0.0
2016-May-18 06:31N 49°29' W 000°07'0 0.0
2016-May-18 05:31N 49°29' W 000°07'0 0.0
2016-May-18 04:31N 49°29' W 000°07'0 0.0
2016-May-18 03:31N 49°29' W 000°07'0 0.1
2016-May-18 02:31N 49°29' W 000°07'0 0.1
2016-May-18 01:31N 49°29' W 000°07'0 0.0
2016-May-18 00:31N 49°29' W 000°07'0 0.0
2016-May-17 23:31N 49°29' W 000°07'0 0.0
2016-May-17 22:31N 49°29' W 000°07'0 0.1
2016-May-17 21:31N 49°29' W 000°07'0 0.1
2016-May-17 20:31N 49°29' W 000°07'0 0.0
2016-May-17 19:31N 49°29' W 000°07'0 0.0
2016-May-17 18:31N 49°29' W 000°07'0 0.0
2016-May-17 17:31N 49°29' W 000°07'0 0.0
2016-May-17 16:31N 49°29' W 000°07'0 0.0
2016-May-17 15:31N 49°29' W 000°07'0 0.0
2016-May-17 14:31N 49°29' W 000°07'0 0.0
2016-May-17 13:31N 49°29' W 000°07'0 0.0
2016-May-17 12:31N 49°29' W 000°07'0 0.0
2016-May-17 11:31N 49°29' W 000°07'0 0.1
2016-May-17 10:31N 49°29' W 000°07'0 0.1
2016-May-17 09:31N 49°29' W 000°07'0 0.0
2016-May-17 08:31N 49°29' W 000°07'0 0.0
2016-May-17 07:31N 49°29' W 000°07'0 0.0
2016-May-17 06:31N 49°29' W 000°07'0 0.0
2016-May-17 05:28N 49°29' W 000°07'0 0.0
2016-May-17 04:31N 49°29' W 000°07'0 0.0
2016-May-17 03:31N 49°29' W 000°07'0 0.0
2016-May-17 02:31N 49°29' W 000°07'0 0.0
2016-May-17 01:31N 49°29' W 000°07'0 0.1
2016-May-17 00:31N 49°29' W 000°07'0 0.0
2016-May-16 23:31N 49°29' W 000°07'0 0.0
2016-May-16 22:31N 49°29' W 000°07'0 0.0
2016-May-16 21:31N 49°29' W 000°07'0 0.0
2016-May-16 20:31N 49°29' W 000°07'0 0.0
2016-May-16 19:31N 49°29' W 000°07'0 0.0
2016-May-16 18:31N 49°29' W 000°07'0 0.0
2016-May-16 17:31N 49°29' W 000°07'0 0.0
2016-May-16 16:31N 49°29' W 000°07'0 0.0
2016-May-16 15:31N 49°29' W 000°07'0 0.0
2016-May-16 14:31N 49°29' W 000°07'0 0.0
2016-May-16 13:31N 49°29' W 000°07'0 0.0
2016-May-16 12:31N 49°29' W 000°07'0 0.0
2016-May-16 11:31N 49°29' W 000°07'0 0.0
2016-May-16 10:31N 49°29' W 000°07'0 0.0
2016-May-16 09:31N 49°29' W 000°07'0 0.0
2016-May-16 08:31N 49°29' W 000°07'0 0.0
2016-May-16 07:31N 49°29' W 000°07'0 0.0
2016-May-16 06:31N 49°29' W 000°07'0 0.0
2016-May-16 05:31N 49°29' W 000°07'0 0.0
2016-May-16 04:31N 49°29' W 000°07'0 0.0
2016-May-16 03:31N 49°29' W 000°07'0 0.0
2016-May-16 02:31N 49°29' W 000°07'0 0.0
2016-May-16 01:31N 49°29' W 000°07'0 0.0
2016-May-16 00:31N 49°29' W 000°07'0 0.1
2016-May-15 23:31N 49°29' W 000°07'0 0.0
2016-May-15 22:31N 49°29' W 000°07'0 0.0
2016-May-15 21:31N 49°29' W 000°07'0 0.0
2016-May-15 20:31N 49°29' W 000°07'0 0.0
2016-May-15 19:31N 49°29' W 000°07'0 0.0
2016-May-15 18:31N 49°29' W 000°07'0 0.0
2016-May-15 17:31N 49°29' W 000°07'0 0.0
2016-May-15 16:31N 49°29' W 000°07'0 0.0
2016-May-15 15:31N 49°29' W 000°07'0 0.0
2016-May-15 14:31N 49°29' W 000°07'0 0.0
2016-May-15 13:31N 49°29' W 000°07'0 0.0
2016-May-15 12:31N 49°29' W 000°07'0 0.0
2016-May-15 11:31N 49°29' W 000°07'0 0.0
2016-May-15 10:31N 49°29' W 000°07'0 0.0
2016-May-15 09:31N 49°29' W 000°07'0 0.0
2016-May-15 08:31N 49°29' W 000°07'0 0.0
2016-May-15 07:31N 49°29' W 000°07'0 0.1
2016-May-15 06:31N 49°29' W 000°07'0 0.0
2016-May-15 05:31N 49°29' W 000°07'0 0.0
2016-May-15 04:31N 49°29' W 000°07'0 0.0
2016-May-15 03:31N 49°29' W 000°07'0 0.0
2016-May-15 02:31N 49°29' W 000°07'0 0.1
2016-May-15 01:31N 49°29' W 000°07'0 0.0
2016-May-15 00:31N 49°29' W 000°07'0 0.0
2016-May-14 23:31N 49°29' W 000°07'0 0.0
2016-May-14 22:31N 49°29' W 000°07'0 0.0
2016-May-14 21:31N 49°29' W 000°07'0 0.0
2016-May-14 20:31N 49°29' W 000°07'0 0.0
2016-May-14 19:31N 49°29' W 000°07'0 0.0
2016-May-14 18:31N 49°29' W 000°07'0 0.1
2016-May-14 17:31N 49°29' W 000°07'0 0.0
2016-May-14 16:31N 49°29' W 000°07'0 0.0
2016-May-14 15:31N 49°29' W 000°07'0 0.0
2016-May-14 14:31N 49°29' W 000°07'0 0.0
2016-May-14 13:31N 49°29' W 000°07'0 0.0
2016-May-14 12:31N 49°29' W 000°07'  
Track history (hours):
 
Tides and Currents Weather Stations Pressure Air Temp Water Temp Dewpoint Dewpoint Depression Visibility Wind Speed Wind Dir Waves Ship Positions

Arklow Mill

Last reported at 2016-May-24 11:33 UTC. Time now 2016-May-24 11:49 UTC.
Position N 51°17' E 004°21'.

Length 137 m; draft 8.4 m.

Type: Ship. MMSI: 250002022.

Date/timePositionNaut miles runAvg speedWind from/ knotsBaromVisibWave heightAir tempDewpointWater temp
2016-May-24 11:33N 51°17' E 004°21'0 0.0
2016-May-24 10:33N 51°17' E 004°21'0 0.0
2016-May-24 09:33N 51°17' E 004°21'0 0.0
2016-May-24 08:33N 51°17' E 004°21'0 0.0
2016-May-24 07:33N 51°17' E 004°21'0 0.0
2016-May-24 06:33N 51°17' E 004°21'0 0.0
2016-May-24 05:33N 51°17' E 004°21'0 0.0
2016-May-24 04:33N 51°17' E 004°21'0 0.0
2016-May-24 03:33N 51°17' E 004°21'0 0.0
2016-May-24 02:33N 51°17' E 004°21'0 0.0
2016-May-24 01:33N 51°17' E 004°21'0 0.0
2016-May-24 00:33N 51°17' E 004°21'0 0.0
2016-May-23 23:33N 51°17' E 004°21'0 0.0
2016-May-23 22:33N 51°17' E 004°21'0 0.0
2016-May-23 21:33N 51°17' E 004°21'0 0.0
2016-May-23 20:30N 51°17' E 004°21'0 0.0
2016-May-23 19:33N 51°17' E 004°21'0 0.0
2016-May-23 18:33N 51°17' E 004°21'0 0.0
2016-May-23 17:33N 51°17' E 004°21'0 0.0
2016-May-23 16:33N 51°17' E 004°21'0 0.0
2016-May-23 15:33N 51°17' E 004°21'0 0.0
2016-May-23 14:33N 51°17' E 004°21'0 0.0
2016-May-23 13:33N 51°17' E 004°21'0 0.0
2016-May-23 12:33N 51°17' E 004°21'0 0.0
2016-May-22 19:33N 51°17' E 004°21'4 4.1
2016-May-22 18:34N 51°21' E 004°17'0 0.0
2016-May-22 17:34N 51°21' E 004°17'4 4.4
2016-May-22 16:34N 51°24' E 004°12'8 8.3
2016-May-22 15:34N 51°26' E 003°59'1010.2
2016-May-22 14:33N 51°22' E 003°45'1211.7
2016-May-22 13:33N 51°25' E 003°26'1414.0
2016-May-22 12:33N 51°25' E 003°04'1313.4
2016-May-22 11:33N 51°21' E 002°43'1312.4
2016-May-22 10:32N 51°20' E 002°23'1211.8
2016-May-22 09:33N 51°14' E 002°07'1110.6
2016-May-22 08:33N 51°08' E 001°52'12 9.7
2016-May-22 07:20N 51°00' E 001°39'7510.9
2016-May-22 00:27N 50°04' E 000°21'1112.4
2016-May-21 23:33N 49°54' E 000°12'1313.2
2016-May-21 22:34N 49°43' E 000°02'1313.5
2016-May-21 21:33N 49°30' W 000°05'1110.7
2016-May-21 20:33N 49°26' E 000°10'10 9.9
2016-May-21 19:33N 49°27' E 000°25'8 7.4
2016-May-21 18:32N 49°26' E 000°36'8 7.6
2016-May-21 17:29N 49°31' E 000°46'8 7.4
2016-May-21 16:28N 49°24' E 000°52'3 0.1
2016-May-20 09:33N 49°27' E 000°49'6 6.0
2016-May-20 08:33N 49°28' E 000°40'8 7.8
2016-May-20 07:34N 49°29' E 000°28'1312.6
2016-May-20 06:34N 49°26' E 000°09'1110.3
2016-May-20 05:31N 49°29' W 000°07'0 0.0
2016-May-20 04:31N 49°29' W 000°07'0 0.1
2016-May-20 03:31N 49°29' W 000°07'0 0.0
2016-May-20 02:28N 49°29' W 000°07'0 0.0
2016-May-20 01:31N 49°29' W 000°07'0 0.0
2016-May-20 00:31N 49°29' W 000°07'0 0.0
2016-May-19 23:31N 49°29' W 000°07'0 0.0
2016-May-19 22:31N 49°29' W 000°07'0 0.0
2016-May-19 21:31N 49°29' W 000°07'0 0.0
2016-May-19 20:31N 49°29' W 000°07'0 0.0
2016-May-19 19:31N 49°29' W 000°07'0 0.0
2016-May-19 18:31N 49°29' W 000°07'0 0.0
2016-May-19 17:31N 49°29' W 000°07'0 0.0
2016-May-19 16:31N 49°29' W 000°07'0 0.1
2016-May-19 15:31N 49°29' W 000°07'0 0.0
2016-May-19 14:31N 49°29' W 000°07'0 0.0
2016-May-19 13:31N 49°29' W 000°07'0 0.0
2016-May-19 12:31N 49°29' W 000°07'0 0.1
2016-May-19 11:31N 49°29' W 000°07'0 0.0
2016-May-19 10:31N 49°29' W 000°07'0 0.0
2016-May-19 09:31N 49°29' W 000°07'0 0.0
2016-May-19 08:31N 49°29' W 000°07'0 0.0
2016-May-19 07:31N 49°29' W 000°07'0 0.0
2016-May-19 06:31N 49°29' W 000°07'0 0.0
2016-May-19 05:31N 49°29' W 000°07'0 0.0
2016-May-19 04:31N 49°29' W 000°07'0 0.0
2016-May-19 03:31N 49°29' W 000°07'0 0.0
2016-May-19 02:31N 49°29' W 000°07'0 0.0
2016-May-19 01:31N 49°29' W 000°07'0 0.0
2016-May-19 00:31N 49°29' W 000°07'0 0.0
2016-May-18 23:31N 49°29' W 000°07'0 0.0
2016-May-18 22:28N 49°29' W 000°07'0 0.0
2016-May-18 21:31N 49°29' W 000°07'0 0.0
2016-May-18 20:31N 49°29' W 000°07'0 0.0
2016-May-18 19:31N 49°29' W 000°07'0 0.0
2016-May-18 18:31N 49°29' W 000°07'0 0.0
2016-May-18 17:31N 49°29' W 000°07'0 0.0
2016-May-18 16:31N 49°29' W 000°07'0 0.0
2016-May-18 15:31N 49°29' W 000°07'0 0.0
2016-May-18 14:31N 49°29' W 000°07'0 0.0
2016-May-18 13:31N 49°29' W 000°07'0 0.1
2016-May-18 12:31N 49°29' W 000°07'0 0.1
2016-May-18 11:31N 49°29' W 000°07'0 0.1
2016-May-18 10:31N 49°29' W 000°07'0 0.0
2016-May-18 09:31N 49°29' W 000°07'0 0.0
2016-May-18 08:31N 49°29' W 000°07'0 0.0
2016-May-18 07:31N 49°29' W 000°07'0 0.0
2016-May-18 06:31N 49°29' W 000°07'0 0.0
2016-May-18 05:31N 49°29' W 000°07'0 0.0
2016-May-18 04:31N 49°29' W 000°07'0 0.0
2016-May-18 03:31N 49°29' W 000°07'0 0.1
2016-May-18 02:31N 49°29' W 000°07'0 0.1
2016-May-18 01:31N 49°29' W 000°07'0 0.0
2016-May-18 00:31N 49°29' W 000°07'0 0.0
2016-May-17 23:31N 49°29' W 000°07'0 0.0
2016-May-17 22:31N 49°29' W 000°07'0 0.1
2016-May-17 21:31N 49°29' W 000°07'0 0.1
2016-May-17 20:31N 49°29' W 000°07'0 0.0
2016-May-17 19:31N 49°29' W 000°07'0 0.0
2016-May-17 18:31N 49°29' W 000°07'0 0.0
2016-May-17 17:31N 49°29' W 000°07'0 0.0
2016-May-17 16:31N 49°29' W 000°07'0 0.0
2016-May-17 15:31N 49°29' W 000°07'0 0.0
2016-May-17 14:31N 49°29' W 000°07'0 0.0
2016-May-17 13:31N 49°29' W 000°07'0 0.0
2016-May-17 12:31N 49°29' W 000°07'0 0.0
2016-May-17 11:31N 49°29' W 000°07'0 0.1
2016-May-17 10:31N 49°29' W 000°07'0 0.1
2016-May-17 09:31N 49°29' W 000°07'0 0.0
2016-May-17 08:31N 49°29' W 000°07'0 0.0
2016-May-17 07:31N 49°29' W 000°07'0 0.0
2016-May-17 06:31N 49°29' W 000°07'0 0.0
2016-May-17 05:28N 49°29' W 000°07'0 0.0
2016-May-17 04:31N 49°29' W 000°07'0 0.0
2016-May-17 03:31N 49°29' W 000°07'0 0.0
2016-May-17 02:31N 49°29' W 000°07'0 0.0
2016-May-17 01:31N 49°29' W 000°07'0 0.1
2016-May-17 00:31N 49°29' W 000°07'0 0.0
2016-May-16 23:31N 49°29' W 000°07'0 0.0
2016-May-16 22:31N 49°29' W 000°07'0 0.0
2016-May-16 21:31N 49°29' W 000°07'0 0.0
2016-May-16 20:31N 49°29' W 000°07'0 0.0
2016-May-16 19:31N 49°29' W 000°07'0 0.0
2016-May-16 18:31N 49°29' W 000°07'0 0.0
2016-May-16 17:31N 49°29' W 000°07'0 0.0
2016-May-16 16:31N 49°29' W 000°07'0 0.0
2016-May-16 15:31N 49°29' W 000°07'0 0.0
2016-May-16 14:31N 49°29' W 000°07'0 0.0
2016-May-16 13:31N 49°29' W 000°07'0 0.0
2016-May-16 12:31N 49°29' W 000°07'0 0.0
2016-May-16 11:31N 49°29' W 000°07'0 0.0
2016-May-16 10:31N 49°29' W 000°07'0 0.0
2016-May-16 09:31N 49°29' W 000°07'0 0.0
2016-May-16 08:31N 49°29' W 000°07'0 0.0
2016-May-16 07:31N 49°29' W 000°07'0 0.0
2016-May-16 06:31N 49°29' W 000°07'0 0.0
2016-May-16 05:31N 49°29' W 000°07'0 0.0
2016-May-16 04:31N 49°29' W 000°07'0 0.0
2016-May-16 03:31N 49°29' W 000°07'0 0.0
2016-May-16 02:31N 49°29' W 000°07'0 0.0
2016-May-16 01:31N 49°29' W 000°07'0 0.0
2016-May-16 00:31N 49°29' W 000°07'0 0.1
2016-May-15 23:31N 49°29' W 000°07'0 0.0
2016-May-15 22:31N 49°29' W 000°07'0 0.0
2016-May-15 21:31N 49°29' W 000°07'0 0.0
2016-May-15 20:31N 49°29' W 000°07'0 0.0
2016-May-15 19:31N 49°29' W 000°07'0 0.0
2016-May-15 18:31N 49°29' W 000°07'0 0.0
2016-May-15 17:31N 49°29' W 000°07'0 0.0
2016-May-15 16:31N 49°29' W 000°07'0 0.0
2016-May-15 15:31N 49°29' W 000°07'0 0.0
2016-May-15 14:31N 49°29' W 000°07'0 0.0
2016-May-15 13:31N 49°29' W 000°07'0 0.0
2016-May-15 12:31N 49°29' W 000°07'0 0.0
2016-May-15 11:31N 49°29' W 000°07'0 0.0
2016-May-15 10:31N 49°29' W 000°07'0 0.0
2016-May-15 09:31N 49°29' W 000°07'0 0.0
2016-May-15 08:31N 49°29' W 000°07'0 0.0
2016-May-15 07:31N 49°29' W 000°07'0 0.1
2016-May-15 06:31N 49°29' W 000°07'0 0.0
2016-May-15 05:31N 49°29' W 000°07'0 0.0
2016-May-15 04:31N 49°29' W 000°07'0 0.0
2016-May-15 03:31N 49°29' W 000°07'0 0.0
2016-May-15 02:31N 49°29' W 000°07'0 0.1
2016-May-15 01:31N 49°29' W 000°07'0 0.0
2016-May-15 00:31N 49°29' W 000°07'0 0.0
2016-May-14 23:31N 49°29' W 000°07'0 0.0
2016-May-14 22:31N 49°29' W 000°07'0 0.0
2016-May-14 21:31N 49°29' W 000°07'0 0.0
2016-May-14 20:31N 49°29' W 000°07'0 0.0
2016-May-14 19:31N 49°29' W 000°07'0 0.0
2016-May-14 18:31N 49°29' W 000°07'0 0.1
2016-May-14 17:31N 49°29' W 000°07'0 0.0
2016-May-14 16:31N 49°29' W 000°07'0 0.0
2016-May-14 15:31N 49°29' W 000°07'0 0.0
2016-May-14 14:31N 49°29' W 000°07'0 0.0
2016-May-14 13:31N 49°29' W 000°07'0 0.0
2016-May-14 12:31N 49°29' W 000°07'  

Dump ship's entire track history